createdAt,value
2023-02-19T00:00:50.889Z,82.58
2023-02-19T00:01:50.891Z,82.47
2023-02-19T00:02:50.897Z,82.68
2023-02-19T00:03:51.025Z,82.79
2023-02-19T00:04:50.865Z,82.58
2023-02-19T00:05:50.829Z,82.68
2023-02-19T00:06:50.854Z,82.89
2023-02-19T00:07:50.824Z,83.04
2023-02-19T00:08:50.885Z,83.25
2023-02-19T00:09:50.802Z,83.36
2023-02-19T00:10:50.781Z,83.36
2023-02-19T00:11:50.825Z,83.14
2023-02-19T00:12:50.857Z,83.25
2023-02-19T00:13:50.749Z,83.25
2023-02-19T00:14:50.736Z,83.46
2023-02-19T00:15:50.814Z,83.46
2023-02-19T00:16:50.721Z,83.25
2023-02-19T00:17:50.708Z,83.04
2023-02-19T00:18:50.696Z,83.14
2023-02-19T00:19:50.690Z,83.14
2023-02-19T00:20:50.671Z,83.36
2023-02-19T00:21:50.754Z,83.14
2023-02-19T00:22:50.682Z,83.25
2023-02-19T00:23:50.628Z,83.25
2023-02-19T00:24:50.625Z,83.14
2023-02-19T00:25:50.613Z,83.14
2023-02-19T00:26:50.644Z,82.68
2023-02-19T00:27:50.611Z,82.58
2023-02-19T00:28:50.611Z,82.16
2023-02-19T00:29:50.577Z,82.16
2023-02-19T00:30:50.779Z,81.95
2023-02-19T00:31:50.664Z,81.74
2023-02-19T00:32:50.532Z,81.70
2023-02-19T00:33:50.517Z,81.52
2023-02-19T00:34:50.510Z,81.28
2023-02-19T00:35:50.792Z,81.32
2023-02-19T00:36:50.539Z,81.32
2023-02-19T00:37:50.485Z,81.84
2023-02-19T00:38:50.480Z,81.95
2023-02-19T00:39:50.501Z,81.84
2023-02-19T00:40:50.531Z,81.63
2023-02-19T00:41:50.470Z,81.52
2023-02-19T00:42:50.439Z,81.63
2023-02-19T00:43:50.415Z,81.32
2023-02-19T00:44:50.420Z,81.21
2023-02-19T00:45:50.419Z,81.32
2023-02-19T00:46:50.410Z,80.90
2023-02-19T00:47:50.384Z,81.00
2023-02-19T00:48:50.372Z,81.32
2023-02-19T00:49:50.352Z,81.52
2023-02-19T00:50:50.416Z,81.10
2023-02-19T00:51:50.351Z,80.90
2023-02-19T00:52:50.328Z,80.68
2023-02-19T00:53:50.300Z,80.68
2023-02-19T00:54:50.292Z,80.68
2023-02-19T00:55:50.303Z,80.68
2023-02-19T00:56:50.341Z,80.90
2023-02-19T00:57:50.270Z,80.58
2023-02-19T00:58:50.269Z,80.68
2023-02-19T00:59:50.237Z,80.36
2023-02-19T01:00:50.293Z,80.68
2023-02-19T01:01:50.383Z,80.90
2023-02-19T01:02:50.204Z,81.10
2023-02-19T01:03:50.249Z,80.90
2023-02-19T01:04:50.284Z,80.90
2023-02-19T01:05:50.176Z,81.00
2023-02-19T01:06:50.189Z,80.79
2023-02-19T01:07:50.160Z,81.04
2023-02-19T01:08:50.171Z,80.68
2023-02-19T01:09:50.243Z,80.47
2023-02-19T01:10:50.130Z,80.36
2023-02-19T01:11:50.152Z,80.36
2023-02-19T01:12:50.106Z,80.47
2023-02-19T01:13:50.094Z,80.36
2023-02-19T01:14:50.099Z,80.05
2023-02-19T01:15:50.122Z,80.26
2023-02-19T01:16:50.082Z,80.16
2023-02-19T01:17:50.058Z,79.94
2023-02-19T01:18:50.043Z,79.74
2023-02-19T01:19:50.036Z,80.05
2023-02-19T01:20:50.078Z,80.36
2023-02-19T01:21:49.996Z,81.04
2023-02-19T01:22:50.793Z,81.00
2023-02-19T01:23:50.793Z,80.90
2023-02-19T01:24:49.971Z,80.58
2023-02-19T01:25:49.978Z,80.58
2023-02-19T01:26:49.963Z,80.58
2023-02-19T01:27:49.930Z,80.58
2023-02-19T01:28:49.991Z,80.79
2023-02-19T01:29:49.929Z,81.00
2023-02-19T01:30:49.914Z,81.00
2023-02-19T01:31:50.057Z,81.10
2023-02-19T01:32:49.879Z,81.32
2023-02-19T01:33:49.905Z,81.32
2023-02-19T01:34:49.898Z,81.63
2023-02-19T01:35:49.978Z,81.98
2023-02-19T01:36:49.861Z,82.05
2023-02-19T01:37:49.833Z,82.26
2023-02-19T01:38:49.847Z,82.26
2023-02-19T01:39:49.812Z,82.26
2023-02-19T01:40:49.804Z,82.58
2023-02-19T01:41:50.058Z,82.58
2023-02-19T01:42:49.768Z,82.79
2023-02-19T01:43:49.786Z,83.00
2023-02-19T01:44:49.777Z,83.00
2023-02-19T01:45:49.750Z,83.11
2023-02-19T01:46:49.779Z,83.21
2023-02-19T01:47:49.724Z,83.28
2023-02-19T01:48:49.721Z,83.07
2023-02-19T01:49:49.990Z,83.17
2023-02-19T01:50:49.678Z,83.17
2023-02-19T01:51:50.790Z,83.39
2023-02-19T01:52:49.683Z,83.39
2023-02-19T01:53:49.662Z,83.49
2023-02-19T01:54:49.649Z,83.39
2023-02-19T01:55:49.672Z,82.97
2023-02-19T01:56:49.623Z,82.75
2023-02-19T01:57:49.624Z,82.65
2023-02-19T01:58:49.612Z,82.54
2023-02-19T01:59:49.600Z,82.86
2023-02-19T02:00:49.653Z,83.07
2023-02-19T02:01:49.693Z,83.28
2023-02-19T02:02:49.577Z,83.17
2023-02-19T02:03:49.544Z,82.86
2023-02-19T02:04:49.575Z,83.07
2023-02-19T02:05:49.526Z,82.97
2023-02-19T02:06:49.582Z,83.07
2023-02-19T02:07:49.498Z,83.07
2023-02-19T02:08:49.505Z,82.97
2023-02-19T02:09:49.497Z,83.07
2023-02-19T02:10:49.485Z,83.17
2023-02-19T02:11:50.199Z,83.28
2023-02-19T02:12:50.395Z,83.28
2023-02-19T02:13:49.465Z,83.28
2023-02-19T02:14:50.201Z,83.28
2023-02-19T02:15:49.458Z,83.39
2023-02-19T02:16:49.408Z,83.39
2023-02-19T02:17:50.316Z,83.28
2023-02-19T02:18:49.393Z,83.28
2023-02-19T02:19:49.386Z,83.17
2023-02-19T02:20:49.376Z,83.17
2023-02-19T02:21:49.397Z,83.49
2023-02-19T02:22:49.350Z,83.28
2023-02-19T02:23:49.362Z,83.39
2023-02-19T02:24:49.406Z,83.39
2023-02-19T02:25:49.326Z,83.39
2023-02-19T02:26:49.318Z,83.17
2023-02-19T02:27:49.345Z,82.86
2023-02-19T02:28:49.288Z,83.17
2023-02-19T02:29:49.273Z,83.28
2023-02-19T02:30:49.281Z,83.28
2023-02-19T02:31:49.324Z,83.17
2023-02-19T02:32:49.820Z,83.21
2023-02-19T02:33:49.240Z,83.42
2023-02-19T02:34:49.248Z,83.31
2023-02-19T02:35:49.223Z,83.21
2023-02-19T02:36:49.210Z,83.21
2023-02-19T02:37:49.196Z,83.11
2023-02-19T02:38:49.195Z,83.11
2023-02-19T02:39:49.200Z,83.11
2023-02-19T02:40:49.177Z,83.21
2023-02-19T02:41:49.146Z,82.68
2023-02-19T02:42:49.133Z,82.58
2023-02-19T02:43:49.137Z,82.33
2023-02-19T02:44:49.144Z,82.58
2023-02-19T02:45:49.184Z,82.68
2023-02-19T02:46:49.098Z,82.89
2023-02-19T02:47:49.082Z,83.00
2023-02-19T02:48:49.086Z,83.00
2023-02-19T02:49:49.072Z,83.00
2023-02-19T02:50:49.074Z,83.00
2023-02-19T02:51:49.037Z,83.00
2023-02-19T02:52:49.045Z,83.00
2023-02-19T02:53:49.057Z,83.00
2023-02-19T02:54:49.029Z,83.42
2023-02-19T02:55:49.126Z,84.27
2023-02-19T02:56:48.990Z,83.95
2023-02-19T02:57:48.980Z,83.73
2023-02-19T02:58:48.968Z,83.31
2023-02-19T02:59:48.964Z,83.21
2023-02-19T03:00:48.990Z,83.31
2023-02-19T03:01:48.999Z,83.53
2023-02-19T03:02:48.909Z,83.53
2023-02-19T03:03:48.916Z,83.63
2023-02-19T03:04:48.901Z,83.73
2023-02-19T03:05:48.895Z,83.73
2023-02-19T03:06:48.890Z,83.73
2023-02-19T03:07:48.904Z,83.63
2023-02-19T03:08:48.865Z,83.84
2023-02-19T03:09:49.723Z,83.73
2023-02-19T03:10:48.843Z,83.95
2023-02-19T03:11:48.821Z,83.84
2023-02-19T03:12:48.865Z,84.05
2023-02-19T03:13:48.795Z,84.16
2023-02-19T03:14:48.798Z,84.05
2023-02-19T03:15:48.777Z,83.73
2023-02-19T03:16:48.851Z,83.42
2023-02-19T03:17:48.756Z,83.31
2023-02-19T03:18:48.788Z,83.11
2023-02-19T03:19:48.798Z,83.11
2023-02-19T03:20:48.737Z,82.79
2023-02-19T03:21:48.713Z,82.89
2023-02-19T03:22:48.695Z,82.68
2023-02-19T03:23:48.689Z,82.26
2023-02-19T03:24:48.672Z,82.58
2023-02-19T03:25:48.688Z,82.68
2023-02-19T03:26:48.657Z,82.68
2023-02-19T03:27:48.652Z,82.47
2023-02-19T03:28:48.636Z,82.58
2023-02-19T03:29:48.677Z,82.79
2023-02-19T03:30:48.648Z,82.79
2023-02-19T03:31:48.743Z,82.68
2023-02-19T03:32:48.605Z,82.68
2023-02-19T03:33:48.588Z,82.82
2023-02-19T03:34:48.603Z,82.58
2023-02-19T03:35:48.552Z,82.37
2023-02-19T03:36:48.544Z,82.40
2023-02-19T03:37:48.545Z,82.40
2023-02-19T03:38:48.533Z,81.88
2023-02-19T03:39:48.546Z,80.90
2023-02-19T03:40:48.498Z,80.58
2023-02-19T03:41:48.511Z,80.26
2023-02-19T03:42:48.481Z,80.36
2023-02-19T03:43:48.476Z,79.94
2023-02-19T03:44:48.495Z,79.84
2023-02-19T03:45:48.476Z,79.94
2023-02-19T03:46:48.459Z,79.52
2023-02-19T03:47:48.424Z,79.63
2023-02-19T03:48:48.416Z,79.74
2023-02-19T03:49:49.174Z,79.84
2023-02-19T03:50:48.433Z,79.94
2023-02-19T03:51:48.385Z,79.74
2023-02-19T03:52:48.390Z,79.63
2023-02-19T03:53:48.365Z,79.52
2023-02-19T03:54:48.372Z,79.74
2023-02-19T03:55:48.337Z,79.63
2023-02-19T03:56:48.367Z,79.63
2023-02-19T03:57:48.318Z,79.74
2023-02-19T03:58:48.320Z,79.74
2023-02-19T03:59:48.299Z,79.94
2023-02-19T04:00:48.288Z,80.16
2023-02-19T04:01:48.295Z,79.94
2023-02-19T04:02:48.267Z,80.16
2023-02-19T04:03:48.258Z,80.58
2023-02-19T04:04:48.268Z,80.58
2023-02-19T04:05:48.237Z,80.79
2023-02-19T04:06:48.255Z,81.35
2023-02-19T04:07:48.223Z,81.35
2023-02-19T04:08:48.205Z,81.46
2023-02-19T04:09:48.205Z,81.35
2023-02-19T04:10:48.218Z,81.56
2023-02-19T04:11:48.165Z,81.56
2023-02-19T04:12:48.173Z,81.32
2023-02-19T04:13:48.156Z,81.10
2023-02-19T04:14:48.153Z,81.10
2023-02-19T04:15:48.162Z,80.90
2023-02-19T04:16:48.156Z,80.90
2023-02-19T04:17:48.121Z,80.79
2023-02-19T04:18:48.111Z,81.00
2023-02-19T04:19:48.092Z,80.90
2023-02-19T04:20:48.108Z,80.79
2023-02-19T04:21:48.077Z,81.10
2023-02-19T04:22:48.064Z,81.10
2023-02-19T04:23:48.062Z,81.10
2023-02-19T04:24:48.049Z,81.10
2023-02-19T04:25:48.054Z,81.00
2023-02-19T04:26:48.022Z,81.21
2023-02-19T04:27:48.008Z,81.46
2023-02-19T04:28:48.001Z,81.56
2023-02-19T04:29:47.995Z,81.67
2023-02-19T04:30:48.009Z,81.67
2023-02-19T04:31:47.997Z,81.67
2023-02-19T04:32:47.949Z,81.67
2023-02-19T04:33:47.937Z,81.63
2023-02-19T04:34:47.938Z,81.63
2023-02-19T04:35:47.920Z,81.32
2023-02-19T04:36:47.897Z,81.32
2023-02-19T04:37:47.914Z,81.52
2023-02-19T04:38:47.900Z,81.74
2023-02-19T04:39:47.884Z,81.74
2023-02-19T04:40:47.885Z,81.84
2023-02-19T04:41:47.838Z,82.09
2023-02-19T04:42:47.927Z,82.20
2023-02-19T04:43:47.840Z,82.30
2023-02-19T04:44:47.808Z,82.51
2023-02-19T04:45:47.832Z,82.40
2023-02-19T04:46:47.794Z,82.51
2023-02-19T04:47:47.809Z,82.62
2023-02-19T04:48:47.773Z,82.51
2023-02-19T04:49:47.772Z,82.20
2023-02-19T04:50:47.783Z,81.98
2023-02-19T04:51:47.750Z,81.88
2023-02-19T04:52:47.715Z,81.88
2023-02-19T04:53:47.713Z,81.77
2023-02-19T04:54:47.721Z,81.88
2023-02-19T04:55:47.721Z,81.98
2023-02-19T04:56:47.689Z,81.88
2023-02-19T04:57:47.682Z,81.46
2023-02-19T04:58:47.660Z,81.14
2023-02-19T04:59:47.663Z,80.93
2023-02-19T05:00:47.669Z,80.82
2023-02-19T05:01:47.753Z,80.62
2023-02-19T05:02:47.614Z,80.51
2023-02-19T05:03:47.622Z,80.62
2023-02-19T05:04:47.587Z,80.62
2023-02-19T05:05:47.942Z,80.62
2023-02-19T05:06:47.574Z,80.30
2023-02-19T05:07:47.609Z,79.77
2023-02-19T05:08:47.563Z,79.52
2023-02-19T05:09:47.586Z,79.32
2023-02-19T05:10:47.622Z,79.00
2023-02-19T05:11:47.520Z,79.10
2023-02-19T05:12:47.519Z,79.00
2023-02-19T05:13:47.567Z,79.24
2023-02-19T05:14:47.487Z,79.24
2023-02-19T05:15:47.576Z,79.14
2023-02-19T05:16:47.490Z,79.03
2023-02-19T05:17:47.472Z,79.14
2023-02-19T05:18:47.455Z,78.92
2023-02-19T05:19:47.448Z,78.92
2023-02-19T05:20:47.431Z,79.03
2023-02-19T05:21:47.453Z,79.24
2023-02-19T05:22:47.425Z,79.24
2023-02-19T05:23:47.391Z,79.24
2023-02-19T05:24:47.381Z,79.24
2023-02-19T05:25:47.372Z,79.46
2023-02-19T05:26:47.356Z,79.14
2023-02-19T05:27:47.377Z,79.03
2023-02-19T05:28:47.329Z,78.92
2023-02-19T05:29:47.325Z,79.03
2023-02-19T05:30:47.376Z,79.03
2023-02-19T05:31:47.483Z,79.17
2023-02-19T05:32:47.316Z,79.07
2023-02-19T05:33:47.387Z,78.86
2023-02-19T05:34:47.272Z,79.03
2023-02-19T05:35:47.269Z,78.72
2023-02-19T05:36:47.274Z,78.40
2023-02-19T05:37:47.238Z,78.75
2023-02-19T05:38:47.251Z,79.17
2023-02-19T05:39:47.225Z,79.28
2023-02-19T05:40:47.224Z,79.60
2023-02-19T05:41:47.209Z,79.80
2023-02-19T05:42:47.220Z,80.16
2023-02-19T05:43:47.186Z,80.47
2023-02-19T05:44:47.171Z,80.69
2023-02-19T05:45:47.152Z,80.79
2023-02-19T05:46:47.156Z,80.69
2023-02-19T05:47:47.155Z,80.58
2023-02-19T05:48:47.147Z,80.69
2023-02-19T05:49:47.114Z,80.69
2023-02-19T05:50:47.132Z,80.58
2023-02-19T05:51:47.095Z,80.58
2023-02-19T05:52:47.096Z,80.47
2023-02-19T05:53:47.140Z,80.47
2023-02-19T05:54:47.075Z,80.37
2023-02-19T05:55:47.064Z,79.95
2023-02-19T05:56:47.043Z,80.16
2023-02-19T05:57:47.024Z,80.47
2023-02-19T05:58:47.010Z,81.01
2023-02-19T05:59:47.037Z,80.90
2023-02-19T06:00:46.999Z,80.69
2023-02-19T06:01:46.989Z,80.23
2023-02-19T06:02:46.991Z,80.37
2023-02-19T06:03:47.021Z,80.47
2023-02-19T06:04:46.995Z,80.54
2023-02-19T06:05:46.942Z,81.11
2023-02-19T06:06:46.936Z,80.54
2023-02-19T06:07:46.913Z,80.54
2023-02-19T06:08:46.929Z,80.33
2023-02-19T06:09:46.914Z,80.33
2023-02-19T06:10:46.907Z,80.54
2023-02-19T06:11:46.886Z,80.33
2023-02-19T06:12:46.867Z,80.23
2023-02-19T06:13:46.865Z,80.12
2023-02-19T06:14:46.871Z,80.12
2023-02-19T06:15:46.854Z,80.23
2023-02-19T06:16:46.865Z,80.23
2023-02-19T06:17:46.827Z,80.44
2023-02-19T06:18:46.916Z,80.33
2023-02-19T06:19:46.801Z,80.44
2023-02-19T06:20:46.788Z,80.79
2023-02-19T06:21:46.797Z,80.79
2023-02-19T06:22:46.757Z,80.76
2023-02-19T06:23:46.759Z,80.65
2023-02-19T06:24:46.727Z,80.86
2023-02-19T06:25:46.723Z,80.86
2023-02-19T06:26:46.734Z,80.76
2023-02-19T06:27:46.702Z,80.86
2023-02-19T06:28:46.695Z,81.11
2023-02-19T06:29:46.689Z,80.90
2023-02-19T06:30:46.675Z,81.01
2023-02-19T06:31:46.764Z,81.11
2023-02-19T06:32:46.687Z,81.21
2023-02-19T06:33:46.663Z,81.32
2023-02-19T06:34:47.365Z,81.07
2023-02-19T06:35:46.620Z,81.18
2023-02-19T06:36:46.632Z,80.86
2023-02-19T06:37:46.601Z,80.76
2023-02-19T06:38:46.631Z,80.76
2023-02-19T06:39:46.577Z,80.97
2023-02-19T06:40:46.577Z,80.97
2023-02-19T06:41:46.591Z,81.07
2023-02-19T06:42:46.554Z,81.07
2023-02-19T06:43:46.685Z,80.97
2023-02-19T06:44:46.553Z,80.86
2023-02-19T06:45:46.529Z,81.07
2023-02-19T06:46:46.611Z,80.97
2023-02-19T06:47:46.527Z,80.97
2023-02-19T06:48:46.493Z,80.86
2023-02-19T06:49:46.500Z,80.97
2023-02-19T06:50:46.464Z,80.86
2023-02-19T06:51:46.488Z,80.54
2023-02-19T06:52:46.463Z,80.33
2023-02-19T06:53:46.461Z,80.44
2023-02-19T06:54:46.414Z,80.65
2023-02-19T06:55:46.416Z,80.54
2023-02-19T06:56:47.216Z,80.23
2023-02-19T06:57:46.389Z,79.91
2023-02-19T06:58:46.401Z,79.60
2023-02-19T06:59:46.451Z,79.60
2023-02-19T07:00:46.413Z,79.28
2023-02-19T07:01:46.424Z,79.28
2023-02-19T07:02:46.339Z,79.38
2023-02-19T07:03:46.339Z,79.17
2023-02-19T07:04:46.318Z,78.92
2023-02-19T07:05:46.372Z,78.96
2023-02-19T07:06:46.299Z,78.75
2023-02-19T07:07:46.305Z,78.64
2023-02-19T07:08:46.279Z,78.86
2023-02-19T07:09:46.262Z,78.96
2023-02-19T07:10:46.264Z,78.96
2023-02-19T07:11:46.283Z,79.07
2023-02-19T07:12:46.244Z,79.07
2023-02-19T07:13:46.217Z,79.28
2023-02-19T07:14:46.205Z,79.17
2023-02-19T07:15:46.195Z,79.38
2023-02-19T07:16:46.207Z,79.53
2023-02-19T07:17:46.165Z,79.28
2023-02-19T07:18:46.200Z,79.17
2023-02-19T07:19:46.199Z,78.96
2023-02-19T07:20:46.154Z,78.96
2023-02-19T07:21:46.407Z,79.07
2023-02-19T07:22:46.309Z,78.86
2023-02-19T07:23:46.143Z,78.75
2023-02-19T07:24:47.884Z,78.86
2023-02-19T07:25:46.150Z,78.64
2023-02-19T07:26:46.078Z,78.50
2023-02-19T07:27:46.062Z,78.30
2023-02-19T07:28:46.042Z,78.19
2023-02-19T07:29:46.082Z,78.08
2023-02-19T07:30:46.895Z,77.87
2023-02-19T07:31:46.069Z,77.98
2023-02-19T07:32:46.003Z,78.08
2023-02-19T07:33:45.997Z,77.98
2023-02-19T07:34:45.983Z,78.08
2023-02-19T07:35:45.975Z,78.26
2023-02-19T07:36:45.978Z,78.16
2023-02-19T07:37:45.950Z,78.16
2023-02-19T07:38:46.623Z,78.30
2023-02-19T07:39:45.926Z,78.40
2023-02-19T07:40:45.937Z,78.30
2023-02-19T07:41:45.920Z,78.36
2023-02-19T07:42:45.910Z,78.26
2023-02-19T07:43:45.906Z,78.05
2023-02-19T07:44:45.916Z,78.26
2023-02-19T07:45:45.922Z,78.05
2023-02-19T07:46:45.862Z,77.73
2023-02-19T07:47:45.847Z,77.73
2023-02-19T07:48:45.877Z,77.63
2023-02-19T07:49:45.823Z,77.52
2023-02-19T07:50:45.835Z,77.38
2023-02-19T07:51:45.824Z,77.28
2023-02-19T07:52:45.807Z,77.07
2023-02-19T07:53:45.779Z,76.86
2023-02-19T07:54:45.771Z,76.96
2023-02-19T07:55:45.763Z,76.61
2023-02-19T07:56:45.776Z,76.65
2023-02-19T07:57:45.736Z,76.61
2023-02-19T07:58:45.747Z,76.29
2023-02-19T07:59:45.779Z,76.40
2023-02-19T08:00:45.793Z,76.40
2023-02-19T08:01:45.732Z,76.51
2023-02-19T08:02:45.683Z,76.40
2023-02-19T08:03:45.681Z,76.51
2023-02-19T08:04:45.696Z,76.40
2023-02-19T08:05:45.672Z,76.51
2023-02-19T08:06:45.650Z,76.29
2023-02-19T08:07:45.649Z,76.29
2023-02-19T08:08:45.629Z,76.19
2023-02-19T08:09:45.640Z,76.09
2023-02-19T08:10:45.593Z,76.09
2023-02-19T08:11:45.608Z,76.09
2023-02-19T08:12:45.583Z,76.09
2023-02-19T08:13:46.663Z,76.15
2023-02-19T08:14:45.559Z,76.26
2023-02-19T08:15:45.563Z,76.26
2023-02-19T08:16:45.549Z,76.26
2023-02-19T08:17:45.705Z,76.51
2023-02-19T08:18:45.568Z,76.47
2023-02-19T08:19:45.520Z,76.47
2023-02-19T08:20:45.492Z,76.57
2023-02-19T08:21:45.546Z,76.89
2023-02-19T08:22:45.587Z,76.79
2023-02-19T08:23:45.466Z,76.68
2023-02-19T08:24:45.616Z,76.57
2023-02-19T08:25:45.453Z,76.47
2023-02-19T08:26:45.430Z,76.37
2023-02-19T08:27:46.787Z,76.37
2023-02-19T08:28:45.412Z,76.47
2023-02-19T08:29:45.406Z,76.57
2023-02-19T08:30:45.583Z,76.57
2023-02-19T08:31:45.607Z,76.79
2023-02-19T08:32:45.365Z,76.79
2023-02-19T08:33:45.363Z,76.68
2023-02-19T08:34:45.363Z,76.89
2023-02-19T08:35:45.335Z,76.57
2023-02-19T08:36:45.373Z,76.26
2023-02-19T08:37:45.306Z,76.26
2023-02-19T08:38:45.986Z,76.15
2023-02-19T08:39:45.303Z,76.37
2023-02-19T08:40:45.280Z,76.15
2023-02-19T08:41:45.278Z,76.26
2023-02-19T08:42:45.256Z,76.23
2023-02-19T08:43:45.241Z,76.47
2023-02-19T08:44:45.266Z,76.01
2023-02-19T08:45:45.293Z,75.81
2023-02-19T08:46:45.222Z,75.70
2023-02-19T08:47:45.186Z,75.81
2023-02-19T08:48:45.207Z,75.81
2023-02-19T08:49:45.334Z,75.81
2023-02-19T08:50:45.155Z,75.67
2023-02-19T08:51:45.154Z,75.35
2023-02-19T08:52:45.147Z,75.35
2023-02-19T08:53:45.138Z,75.14
2023-02-19T08:54:45.143Z,75.24
2023-02-19T08:55:45.166Z,75.24
2023-02-19T08:56:45.086Z,75.46
2023-02-19T08:57:45.145Z,75.14
2023-02-19T08:58:45.083Z,74.93
2023-02-19T08:59:45.060Z,75.14
2023-02-19T09:00:45.081Z,75.46
2023-02-19T09:01:45.081Z,75.46
2023-02-19T09:02:45.056Z,75.04
2023-02-19T09:03:45.035Z,75.14
2023-02-19T09:04:45.028Z,75.14
2023-02-19T09:05:45.033Z,75.04
2023-02-19T09:06:44.988Z,75.24
2023-02-19T09:07:44.982Z,75.24
2023-02-19T09:08:44.972Z,75.14
2023-02-19T09:09:44.944Z,74.72
2023-02-19T09:10:44.966Z,74.93
2023-02-19T09:11:45.693Z,75.04
2023-02-19T09:12:44.951Z,74.82
2023-02-19T09:13:44.911Z,75.04
2023-02-19T09:14:44.894Z,74.72
2023-02-19T09:15:44.933Z,74.93
2023-02-19T09:16:44.925Z,75.04
2023-02-19T09:17:44.893Z,74.40
2023-02-19T09:18:44.849Z,74.09
2023-02-19T09:19:44.861Z,74.30
2023-02-19T09:20:44.835Z,74.16
2023-02-19T09:21:44.879Z,74.05
2023-02-19T09:22:44.814Z,73.85
2023-02-19T09:23:44.797Z,73.63
2023-02-19T09:24:44.793Z,73.43
2023-02-19T09:25:44.794Z,73.22
2023-02-19T09:26:44.772Z,73.22
2023-02-19T09:27:44.807Z,72.90
2023-02-19T09:28:44.766Z,73.32
2023-02-19T09:29:44.744Z,73.11
2023-02-19T09:30:44.769Z,73.22
2023-02-19T09:31:44.904Z,72.80
2023-02-19T09:32:44.803Z,72.76
2023-02-19T09:33:44.717Z,72.69
2023-02-19T09:34:44.685Z,72.45
2023-02-19T09:35:44.727Z,72.45
2023-02-19T09:36:44.728Z,72.45
2023-02-19T09:37:44.656Z,72.55
2023-02-19T09:38:44.639Z,72.34
2023-02-19T09:39:44.634Z,72.55
2023-02-19T09:40:44.637Z,72.34
2023-02-19T09:41:44.608Z,72.55
2023-02-19T09:42:44.644Z,72.45
2023-02-19T09:43:44.604Z,72.31
2023-02-19T09:44:44.586Z,72.10
2023-02-19T09:45:44.552Z,72.10
2023-02-19T09:46:44.625Z,72.20
2023-02-19T09:47:44.556Z,71.68
2023-02-19T09:48:44.566Z,72.03
2023-02-19T09:49:44.537Z,71.51
2023-02-19T09:50:44.526Z,71.72
2023-02-19T09:51:44.534Z,71.09
2023-02-19T09:52:44.493Z,71.54
2023-02-19T09:53:44.506Z,71.65
2023-02-19T09:54:44.545Z,71.44
2023-02-19T09:55:44.502Z,71.51
2023-02-19T09:56:44.503Z,71.12
2023-02-19T09:57:44.451Z,71.23
2023-02-19T09:58:45.183Z,71.54
2023-02-19T09:59:44.438Z,71.68
2023-02-19T10:00:44.473Z,71.75
2023-02-19T10:01:44.394Z,71.12
2023-02-19T10:02:44.438Z,71.33
2023-02-19T10:03:44.377Z,70.91
2023-02-19T10:04:44.445Z,70.39
2023-02-19T10:05:44.359Z,70.07
2023-02-19T10:06:44.328Z,69.55
2023-02-19T10:07:44.382Z,69.13
2023-02-19T10:09:20.146Z,69.34
2023-02-19T10:09:44.298Z,68.50
2023-02-19T10:10:44.289Z,68.82
2023-02-19T10:11:44.292Z,68.92
2023-02-19T10:12:44.295Z,68.78
2023-02-19T10:13:44.265Z,68.92
2023-02-19T10:14:44.265Z,69.55
2023-02-19T10:15:44.293Z,69.34
2023-02-19T10:16:44.246Z,69.31
2023-02-19T10:17:44.298Z,69.02
2023-02-19T10:18:44.259Z,68.71
2023-02-19T10:19:44.199Z,69.13
2023-02-19T10:20:44.171Z,69.02
2023-02-19T10:21:44.202Z,69.34
2023-02-19T10:22:44.209Z,69.23
2023-02-19T10:24:58.923Z,69.55
2023-02-19T10:25:59.900Z,69.65
2023-02-19T10:26:59.870Z,69.13
2023-02-19T10:27:59.858Z,69.45
2023-02-19T10:28:59.882Z,69.48
2023-02-19T10:29:59.944Z,70.10
2023-02-19T10:30:59.869Z,70.10
2023-02-19T10:32:00.060Z,69.79
2023-02-19T10:32:59.823Z,70.07
2023-02-19T10:33:59.823Z,69.76
2023-02-19T10:34:59.791Z,69.86
2023-02-19T10:35:59.785Z,69.86
2023-02-19T10:36:59.776Z,69.65
2023-02-19T10:37:59.768Z,69.23
2023-02-19T10:38:59.787Z,68.92
2023-02-19T10:39:59.728Z,69.16
2023-02-19T10:40:59.715Z,69.23
2023-02-19T10:41:59.722Z,69.34
2023-02-19T10:42:59.706Z,69.76
2023-02-19T10:43:59.710Z,69.45
2023-02-19T10:44:59.715Z,69.34
2023-02-19T10:46:00.490Z,69.13
2023-02-19T10:46:59.678Z,69.55
2023-02-19T10:47:59.652Z,69.23
2023-02-19T10:49:00.400Z,68.92
2023-02-19T10:50:00.813Z,69.23
2023-02-19T10:50:59.647Z,69.02
2023-02-19T10:52:00.496Z,68.92
2023-02-19T10:52:59.651Z,69.13
2023-02-19T10:53:59.646Z,68.82
2023-02-19T10:54:59.667Z,68.92
2023-02-19T10:55:59.564Z,68.71
2023-02-19T10:56:59.562Z,69.02
2023-02-19T10:58:00.500Z,69.45
2023-02-19T10:58:59.537Z,69.86
2023-02-19T10:59:59.592Z,69.55
2023-02-19T11:00:59.532Z,69.31
2023-02-19T11:01:59.518Z,68.68
2023-02-19T11:03:00.319Z,69.02
2023-02-19T11:03:59.548Z,69.45
2023-02-19T11:04:59.546Z,69.55
2023-02-19T11:05:59.552Z,69.52
2023-02-19T11:06:59.447Z,67.94
2023-02-19T11:07:59.440Z,67.94
2023-02-19T11:08:59.420Z,68.15
2023-02-19T11:09:59.456Z,68.47
2023-02-19T11:10:59.388Z,68.26
2023-02-19T11:12:01.922Z,68.57
2023-02-19T11:12:59.375Z,67.63
2023-02-19T11:13:59.367Z,66.79
2023-02-19T11:14:59.357Z,66.79
2023-02-19T11:15:59.371Z,66.82
2023-02-19T11:16:59.331Z,66.82
2023-02-19T11:17:59.313Z,66.40
2023-02-19T11:19:00.276Z,66.50
2023-02-19T11:19:59.298Z,66.72
2023-02-19T11:20:59.301Z,66.72
2023-02-19T11:21:59.316Z,66.82
2023-02-19T11:22:59.337Z,67.14
2023-02-19T11:23:59.243Z,67.03
2023-02-19T11:24:59.578Z,66.93
2023-02-19T11:25:59.258Z,67.24
2023-02-19T11:26:59.224Z,66.89
2023-02-19T11:27:59.212Z,67.11
2023-02-19T11:28:59.211Z,67.00
2023-02-19T11:29:59.249Z,67.00
2023-02-19T11:30:59.249Z,67.42
2023-02-19T11:31:59.346Z,66.89
2023-02-19T11:32:59.173Z,66.89
2023-02-19T11:33:59.147Z,67.11
2023-02-19T11:34:59.135Z,67.32
2023-02-19T11:35:59.129Z,67.32
2023-02-19T11:36:59.142Z,67.11
2023-02-19T11:37:59.166Z,65.74
2023-02-19T11:38:59.099Z,65.43
2023-02-19T11:39:59.084Z,66.27
2023-02-19T11:40:59.157Z,66.89
2023-02-19T11:41:59.142Z,66.27
2023-02-19T11:42:59.040Z,65.32
2023-02-19T11:43:59.034Z,65.53
2023-02-19T11:44:59.024Z,64.28
2023-02-19T11:45:59.091Z,65.01
2023-02-19T11:46:59.045Z,64.69
2023-02-19T11:47:59.015Z,64.48
2023-02-19T11:48:58.998Z,65.22
2023-02-19T11:49:59.025Z,66.37
2023-02-19T11:50:59.040Z,65.53
2023-02-19T11:51:58.964Z,64.48
2023-02-19T11:52:58.963Z,63.65
2023-02-19T11:53:58.926Z,64.06
2023-02-19T11:54:58.920Z,64.28
2023-02-19T11:55:58.916Z,64.06
2023-02-19T11:56:58.915Z,64.80
2023-02-19T11:57:58.904Z,64.69
2023-02-19T11:59:00.660Z,64.48
2023-02-19T11:59:58.866Z,64.90
2023-02-19T12:00:58.854Z,65.01
2023-02-19T12:01:58.956Z,64.80
2023-02-19T12:02:58.919Z,64.80
2023-02-19T12:04:00.475Z,65.11
2023-02-19T12:04:58.819Z,65.32
2023-02-19T12:05:58.844Z,64.90
2023-02-19T12:06:58.846Z,64.80
2023-02-19T12:07:58.776Z,64.90
2023-02-19T12:08:58.756Z,65.53
2023-02-19T12:09:58.771Z,65.32
2023-02-19T12:10:58.745Z,65.43
2023-02-19T12:11:58.731Z,65.32
2023-02-19T12:12:58.708Z,65.95
2023-02-19T12:13:58.709Z,66.06
2023-02-19T12:14:58.728Z,66.37
2023-02-19T12:15:58.701Z,66.79
2023-02-19T12:16:58.668Z,66.89
2023-02-19T12:17:58.661Z,66.69
2023-02-19T12:18:58.661Z,66.89
2023-02-19T12:19:58.698Z,66.79
2023-02-19T12:20:58.628Z,66.79
2023-02-19T12:21:58.620Z,67.32
2023-02-19T12:22:58.611Z,67.00
2023-02-19T12:23:58.578Z,66.58
2023-02-19T12:24:58.613Z,66.16
2023-02-19T12:25:58.589Z,65.53
2023-02-19T12:26:58.564Z,65.95
2023-02-19T12:27:58.546Z,66.37
2023-02-19T12:28:58.669Z,66.27
2023-02-19T12:29:58.548Z,66.16
2023-02-19T12:30:58.604Z,66.69
2023-02-19T12:31:58.526Z,65.95
2023-02-19T12:32:58.518Z,66.16
2023-02-19T12:33:58.485Z,66.69
2023-02-19T12:34:58.474Z,66.69
2023-02-19T12:35:58.489Z,66.79
2023-02-19T12:36:58.448Z,66.69
2023-02-19T12:37:58.448Z,66.47
2023-02-19T12:38:58.437Z,66.47
2023-02-19T12:39:58.413Z,66.16
2023-02-19T12:40:58.417Z,66.69
2023-02-19T12:41:58.388Z,66.37
2023-02-19T12:42:58.390Z,66.47
2023-02-19T12:43:58.387Z,66.58
2023-02-19T12:44:58.483Z,66.89
2023-02-19T12:45:58.449Z,66.89
2023-02-19T12:46:58.354Z,67.00
2023-02-19T12:47:58.335Z,66.89
2023-02-19T12:48:58.494Z,67.11
2023-02-19T12:49:58.302Z,66.89
2023-02-19T12:50:58.323Z,67.32
2023-02-19T12:51:58.310Z,66.47
2023-02-19T12:52:58.260Z,67.21
2023-02-19T12:53:58.284Z,67.32